createdAt,value
2023-02-06T00:01:29.608Z,8.00
2023-02-06T00:03:56.306Z,7.10
2023-02-06T00:06:25.314Z,6.80
2023-02-06T00:08:54.197Z,7.30
2023-02-06T00:11:21.702Z,7.83
2023-02-06T00:13:53.115Z,9.90
2023-02-06T00:16:25.042Z,7.33
2023-02-06T00:18:55.248Z,10.07
2023-02-06T00:21:26.151Z,6.87
2023-02-06T00:23:58.301Z,8.30
2023-02-06T00:26:26.092Z,7.53
2023-02-06T00:28:55.427Z,7.47
2023-02-06T00:31:22.246Z,10.07
2023-02-06T00:33:51.175Z,9.40
2023-02-06T00:36:17.893Z,9.27
2023-02-06T00:38:44.742Z,8.63
2023-02-06T00:41:11.601Z,9.10
2023-02-06T00:43:38.354Z,8.52
2023-02-06T00:46:07.232Z,9.93
2023-02-06T00:48:36.813Z,9.43
2023-02-06T00:51:03.937Z,8.80
2023-02-06T00:53:32.859Z,10.90
2023-02-06T00:55:59.570Z,9.83
2023-02-06T00:58:31.140Z,9.10
2023-02-06T01:00:57.781Z,10.30
2023-02-06T01:03:27.025Z,9.20
2023-02-06T01:05:53.662Z,9.00
2023-02-06T01:08:22.786Z,10.00
2023-02-06T01:10:51.864Z,9.13
2023-02-06T01:13:24.072Z,10.20
2023-02-06T01:15:52.937Z,11.07
2023-02-06T01:18:19.665Z,10.40
2023-02-06T01:20:46.343Z,11.33
2023-02-06T01:23:15.262Z,11.30
2023-02-06T01:25:41.902Z,11.57
2023-02-06T01:28:08.625Z,9.77
2023-02-06T01:30:35.380Z,11.17
2023-02-06T01:33:04.575Z,11.03
2023-02-06T01:35:31.236Z,10.70
2023-02-06T01:37:57.998Z,10.80
2023-02-06T01:40:27.096Z,13.77
2023-02-06T01:42:56.251Z,11.57
2023-02-06T01:45:43.425Z,11.80
2023-02-06T01:48:19.382Z,12.63
2023-02-06T01:50:53.463Z,12.37
2023-02-06T01:53:26.959Z,11.50
2023-02-06T01:55:56.136Z,11.47
2023-02-06T01:58:31.780Z,10.13
2023-02-06T02:01:00.275Z,11.87
2023-02-06T02:03:28.642Z,12.93
2023-02-06T02:06:01.290Z,11.97
2023-02-06T02:08:37.189Z,11.88
2023-02-06T02:11:13.925Z,12.53
2023-02-06T02:13:40.790Z,11.83
2023-02-06T02:16:27.956Z,11.97
2023-02-06T02:19:12.460Z,14.13
2023-02-06T02:22:13.444Z,13.77
2023-02-06T02:25:13.406Z,11.80
2023-02-06T02:27:54.539Z,14.80
2023-02-06T02:30:46.564Z,14.88
2023-02-06T02:33:38.549Z,13.53
2023-02-06T02:36:40.573Z,13.37
2023-02-06T02:39:16.018Z,12.70
2023-02-06T02:41:54.245Z,12.60
2023-02-06T02:44:38.411Z,14.38
2023-02-06T02:47:10.074Z,14.33
2023-02-06T02:49:39.449Z,13.03
2023-02-06T02:52:09.007Z,14.77
2023-02-06T02:54:35.694Z,14.40
2023-02-06T02:57:32.169Z,14.03
2023-02-06T03:00:03.891Z,14.37
2023-02-06T03:02:39.902Z,15.67
2023-02-06T03:05:11.235Z,14.77
2023-02-06T03:07:37.869Z,15.97
2023-02-06T03:10:19.303Z,15.20
2023-02-06T03:13:05.624Z,15.87
2023-02-06T03:15:46.926Z,13.40
2023-02-06T03:18:24.347Z,14.13
2023-02-06T03:20:54.431Z,15.20
2023-02-06T03:23:28.992Z,15.97
2023-02-06T03:25:59.124Z,14.97
2023-02-06T03:28:31.057Z,12.67
2023-02-06T03:31:00.772Z,15.03
2023-02-06T03:33:35.559Z,14.67
2023-02-06T03:36:05.289Z,14.63
2023-02-06T03:38:34.827Z,14.20
2023-02-06T03:41:02.615Z,16.73
2023-02-06T03:43:32.506Z,14.00
2023-02-06T03:46:07.592Z,17.63
2023-02-06T03:48:38.313Z,16.20
2023-02-06T03:51:10.622Z,15.80
2023-02-06T03:53:39.503Z,14.80
2023-02-06T03:56:12.956Z,14.10
2023-02-06T03:58:39.704Z,16.57
2023-02-06T04:01:07.948Z,15.70
2023-02-06T04:03:37.011Z,15.40
2023-02-06T04:06:03.955Z,16.07
2023-02-06T04:08:33.106Z,15.67
2023-02-06T04:11:04.685Z,15.30
2023-02-06T04:13:31.458Z,14.83
2023-02-06T04:16:00.606Z,17.15
2023-02-06T04:18:29.435Z,14.97
2023-02-06T04:20:56.124Z,15.73
2023-02-06T04:23:22.790Z,14.20
2023-02-06T04:25:49.427Z,16.33
2023-02-06T04:28:20.543Z,14.93
2023-02-06T04:30:47.844Z,13.77
2023-02-06T04:33:14.566Z,16.80
2023-02-06T04:35:41.213Z,15.07
2023-02-06T04:38:07.889Z,15.93
2023-02-06T04:40:34.544Z,15.50
2023-02-06T04:43:01.284Z,16.10
2023-02-06T04:45:30.225Z,15.30
2023-02-06T04:47:59.603Z,19.50
2023-02-06T04:50:31.871Z,15.27
2023-02-06T04:53:01.266Z,16.83
2023-02-06T04:55:28.214Z,16.73
2023-02-06T04:57:54.945Z,14.20
2023-02-06T05:00:24.077Z,15.50
2023-02-06T05:02:52.899Z,16.77
2023-02-06T05:05:21.810Z,14.63
2023-02-06T05:07:50.722Z,13.63
2023-02-06T05:10:17.500Z,16.73
2023-02-06T05:12:44.213Z,14.97
2023-02-06T05:15:13.265Z,15.53
2023-02-06T05:17:39.920Z,14.70
2023-02-06T05:20:07.150Z,16.00
2023-02-06T05:22:37.490Z,14.20
2023-02-06T05:25:04.364Z,14.80
2023-02-06T05:27:33.704Z,12.93
2023-02-06T05:30:00.382Z,15.20
2023-02-06T05:32:27.061Z,15.13
2023-02-06T05:34:55.935Z,15.60
2023-02-06T05:37:25.121Z,15.60
2023-02-06T05:39:51.813Z,14.77
2023-02-06T05:42:18.459Z,14.90
2023-02-06T05:44:45.088Z,17.57
2023-02-06T05:47:14.121Z,16.93
2023-02-06T05:49:40.842Z,15.47
2023-02-06T05:52:09.939Z,16.63
2023-02-06T05:54:38.929Z,14.67
2023-02-06T05:57:05.782Z,17.93
2023-02-06T05:59:35.029Z,16.33
2023-02-06T06:02:02.126Z,19.47
2023-02-06T06:04:31.431Z,17.47
2023-02-06T06:07:01.015Z,17.33
2023-02-06T06:09:29.934Z,16.43
2023-02-06T06:11:58.714Z,16.57
2023-02-06T06:14:25.454Z,16.50
2023-02-06T06:16:56.604Z,17.15
2023-02-06T06:19:23.248Z,17.63
2023-02-06T06:21:49.936Z,15.43
2023-02-06T06:24:16.652Z,15.50
2023-02-06T06:26:43.374Z,16.70
2023-02-06T06:29:12.637Z,15.73
2023-02-06T06:31:41.562Z,15.23
2023-02-06T06:34:10.599Z,15.80
2023-02-06T06:36:37.345Z,15.50
2023-02-06T06:39:06.480Z,16.90
2023-02-06T06:41:33.191Z,15.73
2023-02-06T06:44:02.145Z,16.17
2023-02-06T06:46:29.205Z,13.83
2023-02-06T06:48:58.075Z,16.07
2023-02-06T06:51:29.342Z,15.77
2023-02-06T06:53:59.575Z,13.60
2023-02-06T06:56:26.872Z,15.33
2023-02-06T06:58:53.580Z,13.93
2023-02-06T07:01:20.324Z,13.63
2023-02-06T07:03:48.369Z,16.73
2023-02-06T07:06:15.804Z,13.63
2023-02-06T07:08:43.490Z,13.20
2023-02-06T07:11:11.896Z,15.07
2023-02-06T07:13:38.965Z,14.20
2023-02-06T07:16:05.891Z,15.43
2023-02-06T07:18:32.858Z,12.60
2023-02-06T07:21:03.385Z,12.90
2023-02-06T07:23:30.317Z,13.63
2023-02-06T07:26:02.160Z,13.83
2023-02-06T07:28:32.299Z,13.30
2023-02-06T07:31:03.310Z,14.63
2023-02-06T07:33:30.686Z,13.10
2023-02-06T07:35:58.071Z,14.50
2023-02-06T07:38:27.221Z,12.47
2023-02-06T07:40:53.992Z,15.60
2023-02-06T07:43:22.881Z,13.20
2023-02-06T07:45:49.553Z,15.00
2023-02-06T07:48:16.991Z,19.27
2023-02-06T07:50:46.257Z,15.43
2023-02-06T07:53:12.962Z,14.93
2023-02-06T07:55:39.675Z,16.77
2023-02-06T07:58:06.636Z,16.30
2023-02-06T08:00:33.578Z,17.40
2023-02-06T08:03:00.265Z,16.13
2023-02-06T08:05:29.414Z,15.27
2023-02-06T08:07:56.109Z,14.37
2023-02-06T08:10:22.904Z,14.50
2023-02-06T08:12:55.063Z,15.60
2023-02-06T08:15:21.848Z,13.17
2023-02-06T08:17:50.763Z,13.73
2023-02-06T08:20:17.622Z,16.40
2023-02-06T08:22:44.270Z,14.17
2023-02-06T08:25:10.916Z,15.03
2023-02-06T08:27:37.640Z,14.65
2023-02-06T08:30:04.934Z,14.87
2023-02-06T08:32:35.483Z,14.60
2023-02-06T08:35:02.665Z,12.47
2023-02-06T08:37:31.163Z,14.97
2023-02-06T08:39:57.799Z,13.88
2023-02-06T08:42:26.924Z,13.10
2023-02-06T08:44:58.353Z,13.97
2023-02-06T08:47:27.315Z,14.00
2023-02-06T08:49:56.141Z,12.73
2023-02-06T08:52:23.266Z,12.80
2023-02-06T08:54:52.805Z,12.80
2023-02-06T08:57:20.171Z,13.60
2023-02-06T08:59:47.103Z,13.27
2023-02-06T09:02:18.245Z,12.85
2023-02-06T09:04:44.952Z,11.10
2023-02-06T09:07:16.987Z,11.67
2023-02-06T09:09:43.913Z,11.13
2023-02-06T09:12:11.869Z,12.93
2023-02-06T09:14:38.935Z,12.67
2023-02-06T09:17:05.713Z,13.17
2023-02-06T09:19:32.458Z,12.53
2023-02-06T09:21:59.160Z,11.43
2023-02-06T09:24:27.274Z,12.37
2023-02-06T09:27:00.759Z,12.23
2023-02-06T09:29:34.467Z,10.37
2023-02-06T09:32:03.856Z,11.37
2023-02-06T09:34:30.663Z,10.37
2023-02-06T09:37:00.178Z,12.43
2023-02-06T09:39:27.128Z,12.27
2023-02-06T09:42:06.475Z,11.47
2023-02-06T09:44:48.828Z,12.17
2023-02-06T09:47:30.154Z,16.20
2023-02-06T09:50:17.302Z,12.43
2023-02-06T09:52:54.054Z,11.17
2023-02-06T09:55:34.809Z,11.57
2023-02-06T09:58:19.934Z,13.83
2023-02-06T10:00:55.199Z,10.80
2023-02-06T10:03:27.964Z,9.47
2023-02-06T10:06:19.291Z,10.63
2023-02-06T10:08:55.042Z,10.07
2023-02-06T10:11:33.289Z,11.25
2023-02-06T10:14:05.258Z,9.33
2023-02-06T10:16:45.754Z,9.73
2023-02-06T10:19:25.326Z,9.87
2023-02-06T10:22:24.266Z,10.33
2023-02-06T10:25:11.156Z,9.63
2023-02-06T10:27:41.682Z,9.37
2023-02-06T10:30:20.447Z,8.40
2023-02-06T10:33:24.874Z,10.33
2023-02-06T10:36:45.972Z,8.87
2023-02-06T10:39:41.769Z,9.53
2023-02-06T10:42:15.668Z,6.67
2023-02-06T10:45:01.321Z,8.10
2023-02-06T10:47:55.695Z,7.03
2023-02-06T10:51:03.776Z,6.93
2023-02-06T10:53:33.961Z,7.07
2023-02-06T10:56:06.033Z,7.07
2023-02-06T10:58:48.976Z,6.30
2023-02-06T11:01:26.040Z,6.53
2023-02-06T11:04:04.432Z,6.50
2023-02-06T11:06:34.120Z,6.10
2023-02-06T11:09:00.897Z,6.10
2023-02-06T11:11:36.085Z,5.43
2023-02-06T11:14:24.959Z,5.17
2023-02-06T11:16:52.741Z,6.35
2023-02-06T11:19:19.361Z,5.80
2023-02-06T11:21:46.004Z,4.97
2023-02-06T11:24:15.379Z,5.83
2023-02-06T11:26:50.937Z,6.53
2023-02-06T11:29:23.570Z,5.50
2023-02-06T11:32:01.921Z,5.60
2023-02-06T11:34:44.043Z,7.50
2023-02-06T11:37:32.098Z,7.10
2023-02-06T11:40:37.173Z,6.90
2023-02-06T11:43:38.304Z,6.43
2023-02-06T11:46:15.106Z,6.77
2023-02-06T11:48:45.877Z,6.33
2023-02-06T11:51:13.847Z,6.57
2023-02-06T11:54:01.885Z,6.23
2023-02-06T11:56:31.702Z,7.53
2023-02-06T11:59:27.493Z,6.97
2023-02-06T12:01:54.859Z,12.03
2023-02-06T12:04:41.325Z,9.32
2023-02-06T12:07:16.190Z,9.17
2023-02-06T12:09:43.424Z,10.40
2023-02-06T12:12:16.366Z,8.07
2023-02-06T12:15:29.399Z,8.23
2023-02-06T12:18:00.738Z,6.60
2023-02-06T12:20:31.848Z,6.93
2023-02-06T12:23:15.282Z,7.22
2023-02-06T12:25:45.850Z,7.47
2023-02-06T12:28:26.578Z,5.73
2023-02-06T12:31:10.436Z,6.77
2023-02-06T12:33:44.134Z,5.50
2023-02-06T12:36:25.511Z,5.10
2023-02-06T12:39:00.741Z,5.80
2023-02-06T12:41:54.880Z,4.77
2023-02-06T12:44:44.910Z,4.70
2023-02-06T12:47:17.733Z,4.90
2023-02-06T12:50:10.828Z,4.20
2023-02-06T12:52:48.264Z,4.40
2023-02-06T12:55:32.920Z,5.13
2023-02-06T12:57:59.832Z,5.10
2023-02-06T13:01:28.571Z,4.70
2023-02-06T13:04:02.378Z,3.73
2023-02-06T13:06:35.918Z,3.97
2023-02-06T13:09:08.703Z,4.27
2023-02-06T13:11:40.641Z,3.60
2023-02-06T13:14:28.645Z,4.93
2023-02-06T13:17:17.571Z,3.80
2023-02-06T13:19:46.545Z,6.17
2023-02-06T13:22:13.562Z,4.00
2023-02-06T13:24:42.264Z,3.90
2023-02-06T13:27:08.948Z,3.90
2023-02-06T13:29:37.466Z,4.35
2023-02-06T13:32:18.341Z,4.90
2023-02-06T13:34:55.311Z,3.77
2023-02-06T13:37:48.848Z,4.77
2023-02-06T13:40:24.617Z,4.97
2023-02-06T13:43:03.496Z,3.77
2023-02-06T13:45:59.604Z,5.00
2023-02-06T13:48:53.680Z,3.73
2023-02-06T13:51:37.866Z,3.80
2023-02-06T13:54:35.468Z,3.50
2023-02-06T13:57:23.397Z,4.13
2023-02-06T14:00:11.058Z,3.33
2023-02-06T14:02:42.895Z,3.40
2023-02-06T14:05:14.367Z,3.00
2023-02-06T14:08:16.433Z,3.47
2023-02-06T14:11:04.566Z,3.20
2023-02-06T14:13:53.997Z,3.47
2023-02-06T14:16:26.568Z,3.37
2023-02-06T14:19:11.704Z,3.87
2023-02-06T14:21:59.817Z,3.73
2023-02-06T14:25:04.141Z,3.47
2023-02-06T14:27:46.885Z,3.30
2023-02-06T14:30:30.392Z,3.03
2023-02-06T14:33:46.297Z,2.80
2023-02-06T14:36:41.155Z,2.70
2023-02-06T14:39:26.346Z,3.10
2023-02-06T14:41:53.808Z,3.33
2023-02-06T14:44:27.323Z,3.17
2023-02-06T14:46:54.884Z,3.57
2023-02-06T14:49:30.598Z,3.33
2023-02-06T14:51:57.630Z,3.45
2023-02-06T14:54:38.242Z,2.83
2023-02-06T14:57:13.774Z,3.40
2023-02-06T14:59:54.265Z,3.27
2023-02-06T15:02:29.975Z,3.70
2023-02-06T15:04:57.695Z,3.17
2023-02-06T15:07:32.900Z,3.53
2023-02-06T15:10:15.965Z,3.72
2023-02-06T15:12:51.358Z,5.00
2023-02-06T15:15:25.090Z,5.13
2023-02-06T15:18:04.452Z,3.50
2023-02-06T15:20:58.227Z,3.63
2023-02-06T15:23:36.792Z,3.67
2023-02-06T15:26:24.175Z,4.40
2023-02-06T15:28:59.900Z,3.10
2023-02-06T15:31:28.189Z,3.67
2023-02-06T15:33:58.012Z,3.17
2023-02-06T15:36:30.451Z,4.90
2023-02-06T15:39:02.770Z,3.27
2023-02-06T15:41:31.237Z,2.97
2023-02-06T15:44:11.959Z,3.77
2023-02-06T15:46:39.359Z,5.27
2023-02-06T15:49:10.933Z,3.77
2023-02-06T15:51:48.729Z,3.73
2023-02-06T15:54:24.565Z,3.87
2023-02-06T15:56:56.525Z,3.77
2023-02-06T15:59:27.145Z,4.40
2023-02-06T16:01:56.517Z,4.03
2023-02-06T16:04:39.710Z,3.27
2023-02-06T16:07:24.554Z,3.43
2023-02-06T16:09:51.288Z,3.57
2023-02-06T16:12:18.207Z,4.93
2023-02-06T16:14:59.448Z,4.47
2023-02-06T16:17:35.279Z,2.83
2023-02-06T16:20:27.541Z,4.00
2023-02-06T16:22:57.678Z,3.75
2023-02-06T16:25:33.695Z,4.03
2023-02-06T16:28:00.631Z,4.10
2023-02-06T16:30:34.048Z,3.10
2023-02-06T16:33:21.921Z,3.73
2023-02-06T16:35:49.176Z,3.60
2023-02-06T16:38:15.911Z,2.97
2023-02-06T16:40:42.691Z,3.57
2023-02-06T16:43:12.414Z,3.43
2023-02-06T16:45:39.133Z,3.33
2023-02-06T16:48:15.038Z,3.83
2023-02-06T16:50:43.124Z,3.23
2023-02-06T16:53:24.589Z,3.23
2023-02-06T16:55:51.978Z,4.63
2023-02-06T16:58:24.767Z,4.07
2023-02-06T17:00:51.774Z,4.03
2023-02-06T17:03:18.685Z,5.60
2023-02-06T17:05:50.157Z,4.00
2023-02-06T17:08:26.665Z,4.13
2023-02-06T17:10:53.490Z,5.57
2023-02-06T17:13:28.439Z,4.57
2023-02-06T17:15:55.824Z,4.07
2023-02-06T17:18:23.882Z,3.90
2023-02-06T17:20:52.791Z,3.90
2023-02-06T17:23:20.292Z,6.73
2023-02-06T17:25:49.384Z,3.90
2023-02-06T17:28:20.382Z,4.10
2023-02-06T17:30:50.856Z,4.13
2023-02-06T17:33:17.958Z,4.13
2023-02-06T17:35:47.198Z,4.25
2023-02-06T17:38:16.181Z,4.70
2023-02-06T17:40:42.985Z,3.60
2023-02-06T17:43:12.241Z,3.83
2023-02-06T17:45:39.918Z,4.30
2023-02-06T17:48:07.589Z,3.10
2023-02-06T17:50:37.981Z,4.20
2023-02-06T17:53:07.031Z,7.60
2023-02-06T17:55:39.816Z,4.90
2023-02-06T17:58:06.847Z,3.97
2023-02-06T18:00:36.658Z,3.87
2023-02-06T18:03:05.173Z,3.53
2023-02-06T18:05:34.837Z,3.40
2023-02-06T18:08:01.628Z,3.90
2023-02-06T18:10:28.323Z,3.20
2023-02-06T18:12:55.802Z,3.80
2023-02-06T18:15:22.502Z,3.53
2023-02-06T18:17:49.214Z,3.23
2023-02-06T18:20:16.176Z,4.03
2023-02-06T18:22:42.832Z,4.67
2023-02-06T18:25:12.046Z,3.07
2023-02-06T18:27:42.179Z,2.60
2023-02-06T18:30:12.160Z,3.73
2023-02-06T18:32:38.851Z,3.87
2023-02-06T18:35:07.142Z,2.77
2023-02-06T18:37:34.932Z,3.83
2023-02-06T18:40:01.638Z,3.40
2023-02-06T18:42:46.782Z,2.80
2023-02-06T18:45:15.814Z,3.03
2023-02-06T18:47:42.521Z,3.30
2023-02-06T18:50:11.534Z,3.43
2023-02-06T18:52:40.787Z,5.47
2023-02-06T18:55:08.561Z,4.20
2023-02-06T18:57:35.565Z,3.57
2023-02-06T19:00:05.711Z,5.17
2023-02-06T19:02:32.480Z,5.03
2023-02-06T19:05:01.600Z,2.83
2023-02-06T19:07:30.793Z,3.20
2023-02-06T19:09:59.152Z,4.00
2023-02-06T19:12:30.195Z,3.40
2023-02-06T19:14:58.078Z,3.70
2023-02-06T19:17:26.208Z,3.63
2023-02-06T19:19:55.795Z,3.80
2023-02-06T19:22:22.814Z,3.33
2023-02-06T19:24:53.247Z,3.67
2023-02-06T19:27:22.592Z,3.90
2023-02-06T19:29:49.252Z,3.57
2023-02-06T19:32:18.427Z,4.00
2023-02-06T19:34:47.658Z,5.50
2023-02-06T19:37:16.962Z,4.37
2023-02-06T19:39:44.413Z,3.53
2023-02-06T19:42:15.995Z,4.53
2023-02-06T19:44:50.708Z,4.00
2023-02-06T19:47:17.460Z,4.23
2023-02-06T19:49:44.178Z,3.83
2023-02-06T19:52:14.485Z,3.87
2023-02-06T19:54:41.212Z,6.13
2023-02-06T19:57:07.995Z,4.97
2023-02-06T19:59:34.706Z,4.13
2023-02-06T20:02:02.838Z,4.23
2023-02-06T20:04:32.441Z,4.23
2023-02-06T20:06:59.513Z,4.47
2023-02-06T20:09:28.304Z,4.83
2023-02-06T20:11:55.553Z,4.75
2023-02-06T20:14:25.500Z,5.63
2023-02-06T20:16:54.793Z,4.47
2023-02-06T20:19:26.902Z,5.17
2023-02-06T20:21:57.420Z,5.43
2023-02-06T20:24:26.632Z,4.87
2023-02-06T20:26:58.905Z,4.85
2023-02-06T20:29:31.603Z,5.83
2023-02-06T20:32:01.414Z,4.00
2023-02-06T20:34:31.186Z,5.20
2023-02-06T20:36:58.538Z,5.17
2023-02-06T20:39:26.225Z,4.87
2023-02-06T20:41:53.568Z,4.23
2023-02-06T20:44:22.806Z,5.50
2023-02-06T20:46:52.249Z,5.20
2023-02-06T20:49:28.851Z,4.83
2023-02-06T20:51:55.808Z,4.57
2023-02-06T20:54:25.901Z,4.30
2023-02-06T20:56:53.129Z,4.80
2023-02-06T20:59:20.582Z,4.00
2023-02-06T21:01:47.775Z,4.40
2023-02-06T21:04:19.032Z,4.33
2023-02-06T21:06:47.908Z,4.82
2023-02-06T21:09:17.928Z,4.83
2023-02-06T21:11:49.998Z,4.63
2023-02-06T21:14:19.977Z,4.57
2023-02-06T21:16:50.376Z,5.20
2023-02-06T21:19:19.511Z,5.07
2023-02-06T21:21:46.931Z,4.23
2023-02-06T21:24:16.707Z,4.67
2023-02-06T21:26:43.534Z,5.47
2023-02-06T21:29:11.464Z,4.13
2023-02-06T21:31:38.949Z,5.10
2023-02-06T21:34:16.298Z,4.80
2023-02-06T21:36:45.818Z,5.10
2023-02-06T21:39:18.369Z,4.33
2023-02-06T21:41:45.899Z,4.93
2023-02-06T21:44:15.033Z,4.27
2023-02-06T21:46:41.896Z,4.40
2023-02-06T21:49:11.475Z,4.97
2023-02-06T21:51:38.798Z,7.27
2023-02-06T21:54:05.502Z,5.27
2023-02-06T21:56:34.516Z,5.63
2023-02-06T21:59:01.217Z,4.93
2023-02-06T22:01:33.479Z,5.00
2023-02-06T22:04:04.204Z,5.30
2023-02-06T22:06:31.024Z,4.67
2023-02-06T22:09:07.304Z,4.00
2023-02-06T22:11:41.820Z,5.78
2023-02-06T22:14:12.400Z,4.53
2023-02-06T22:16:39.652Z,6.00
2023-02-06T22:19:06.863Z,4.77
2023-02-06T22:21:35.186Z,4.83
2023-02-06T22:24:06.381Z,5.40
2023-02-06T22:26:36.815Z,5.00
2023-02-06T22:29:07.196Z,5.00
2023-02-06T22:31:35.359Z,5.00
2023-02-06T22:34:11.739Z,6.30
2023-02-06T22:36:40.779Z,5.03
2023-02-06T22:39:12.734Z,4.73
2023-02-06T22:41:42.008Z,5.80
2023-02-06T22:44:08.968Z,6.07
2023-02-06T22:46:41.496Z,5.27
2023-02-06T22:49:11.434Z,5.07
2023-02-06T22:51:42.190Z,5.50
2023-02-06T22:54:12.347Z,6.00
2023-02-06T22:56:43.586Z,5.40
2023-02-06T22:59:17.731Z,5.07
2023-02-06T23:01:52.927Z,4.63
2023-02-06T23:04:30.744Z,5.60
2023-02-06T23:06:57.676Z,5.82
2023-02-06T23:09:31.361Z,5.40
2023-02-06T23:12:01.198Z,5.17
2023-02-06T23:14:30.222Z,5.03
2023-02-06T23:16:57.817Z,5.53
2023-02-06T23:19:27.208Z,5.40
2023-02-06T23:21:56.060Z,5.93
2023-02-06T23:24:27.320Z,4.80
2023-02-06T23:26:54.375Z,5.00
2023-02-06T23:29:22.451Z,6.33
2023-02-06T23:31:50.395Z,6.20
2023-02-06T23:34:24.137Z,4.93
2023-02-06T23:36:51.963Z,5.67
2023-02-06T23:39:23.495Z,5.97
2023-02-06T23:41:50.339Z,5.77
2023-02-06T23:44:17.680Z,5.30
2023-02-06T23:46:44.457Z,5.90
2023-02-06T23:49:13.601Z,5.10
2023-02-06T23:51:42.403Z,5.47
2023-02-06T23:54:12.082Z,5.83
2023-02-06T23:56:38.758Z,5.87
2023-02-06T23:59:07.850Z,5.67
